createdAt,value
2022-10-23T00:00:02.023Z,99.45
2022-10-23T00:05:02.402Z,99.94
2022-10-23T00:10:01.297Z,98.28
2022-10-23T00:15:01.631Z,98.08
2022-10-23T00:20:01.484Z,99.91
2022-10-23T00:25:02.253Z,99.93
2022-10-23T00:30:01.578Z,98.22
2022-10-23T00:35:01.565Z,99.92
2022-10-23T00:40:02.187Z,98.28
2022-10-23T00:45:02.102Z,98.69
2022-10-23T00:50:01.574Z,98.52
2022-10-23T00:55:01.954Z,98.79
2022-10-23T01:00:01.698Z,98.42
2022-10-23T01:05:01.536Z,99.23
2022-10-23T01:10:01.608Z,98.79
2022-10-23T01:15:01.427Z,98.63
2022-10-23T01:20:02.214Z,98.96
2022-10-23T01:25:01.379Z,99.14
2022-10-23T01:30:01.892Z,99.14
2022-10-23T01:40:01.636Z,99.9
2022-10-23T01:45:01.958Z,100
2022-10-23T01:50:01.612Z,99.81
2022-10-23T01:55:01.393Z,99.65
2022-10-23T02:00:02.122Z,99.94
2022-10-23T02:05:01.871Z,99.84
2022-10-23T02:10:01.925Z,99.59
2022-10-23T02:15:02.213Z,99.45
2022-10-23T02:20:01.495Z,99.25
2022-10-23T02:25:01.387Z,99.05
2022-10-23T02:30:01.707Z,98.85
2022-10-23T02:35:01.909Z,98.95
2022-10-23T02:40:01.521Z,98.85
2022-10-23T02:45:01.916Z,98.76
2022-10-23T02:50:01.657Z,98.74
2022-10-23T02:55:01.984Z,98.79
2022-10-23T03:00:02.047Z,98.95
2022-10-23T03:05:01.486Z,99.08
2022-10-23T03:10:02.208Z,98.86
2022-10-23T03:15:01.954Z,98.89
2022-10-23T03:20:01.474Z,98.76
2022-10-23T03:25:01.315Z,98.31
2022-10-23T03:30:02.302Z,98.18
2022-10-23T03:35:01.303Z,98.17
2022-10-23T03:40:02.115Z,99.72
2022-10-23T03:45:01.712Z,99.69
2022-10-23T03:50:01.783Z,99.56
2022-10-23T03:55:01.504Z,99.54
2022-10-23T04:00:02.219Z,99.65
2022-10-23T04:05:01.370Z,99.72
2022-10-23T04:10:01.784Z,99.78
2022-10-23T04:15:02.112Z,98.18
2022-10-23T04:20:02.054Z,98.18
2022-10-23T04:25:02.001Z,99.66
2022-10-23T04:30:01.340Z,99.66
2022-10-23T04:35:01.798Z,99.54
2022-10-23T04:40:01.552Z,99.5
2022-10-23T04:45:02.170Z,99.44
2022-10-23T04:50:01.752Z,99.5
2022-10-23T04:55:02.119Z,99.36
2022-10-23T05:00:01.333Z,99.24
2022-10-23T05:05:02.092Z,99.36
2022-10-23T05:10:01.298Z,99.14
2022-10-23T05:15:01.314Z,98.8
2022-10-23T05:20:01.777Z,98.76
2022-10-23T05:25:01.996Z,98.4
2022-10-23T05:30:01.664Z,98.34
2022-10-23T05:35:01.370Z,98.21
2022-10-23T05:40:01.681Z,96.65
2022-10-23T05:45:01.758Z,98.25
2022-10-23T05:50:01.453Z,98.33
2022-10-23T05:55:02.218Z,98.37
2022-10-23T06:00:01.614Z,98.23
2022-10-23T06:05:01.589Z,97.84
2022-10-23T06:10:01.967Z,98
2022-10-23T06:15:01.555Z,98.24
2022-10-23T06:20:01.669Z,98.18
2022-10-23T06:25:02.182Z,98.24
2022-10-23T06:30:01.791Z,98.07
2022-10-23T06:35:01.946Z,97.11
2022-10-23T06:40:01.787Z,97.83
2022-10-23T06:45:04.918Z,97.98
2022-10-23T06:50:01.968Z,97.91
2022-10-23T06:55:02.186Z,97.89
2022-10-23T07:00:01.671Z,97.69
2022-10-23T07:05:02.220Z,97.47
2022-10-23T07:10:01.852Z,97.1
2022-10-23T07:15:01.820Z,96.89
2022-10-23T07:20:01.371Z,96.65
2022-10-23T07:25:01.282Z,96.45
2022-10-23T07:30:01.648Z,96.47
2022-10-23T07:35:01.919Z,96.06
2022-10-23T07:40:01.355Z,95.78
2022-10-23T07:45:01.431Z,96.01
2022-10-23T07:50:01.422Z,95.42
2022-10-23T07:55:02.023Z,94.87
2022-10-23T08:00:02.035Z,94.58
2022-10-23T08:05:01.657Z,93.9
2022-10-23T08:10:01.997Z,93.01
2022-10-23T08:15:01.924Z,92.19
2022-10-23T08:20:01.619Z,91.64
2022-10-23T08:25:01.378Z,91.45
2022-10-23T08:30:01.819Z,89.78
2022-10-23T08:35:01.480Z,89.54
2022-10-23T08:40:02.062Z,88.04
2022-10-23T08:45:01.954Z,88.93
2022-10-23T08:50:01.864Z,88.1
2022-10-23T08:55:02.097Z,86.56
2022-10-23T09:00:01.748Z,87.4
2022-10-23T09:05:01.453Z,85.7
2022-10-23T09:10:02.177Z,85.37
2022-10-23T09:15:01.262Z,84.21
2022-10-23T09:20:01.946Z,84.58
2022-10-23T09:25:01.661Z,84.31
2022-10-23T09:30:02.203Z,84.82
2022-10-23T09:35:01.642Z,85.66
2022-10-23T09:40:01.532Z,86.55
2022-10-23T09:45:01.574Z,86.68
2022-10-23T09:50:01.306Z,86.85
2022-10-23T09:55:02.107Z,86.66
2022-10-23T10:00:01.493Z,86.77
2022-10-23T10:05:01.607Z,85.84
2022-10-23T10:10:01.688Z,85.38
2022-10-23T10:15:01.855Z,85.8
2022-10-23T10:20:05.281Z,86.13
2022-10-23T10:25:02.194Z,86.41
2022-10-23T10:30:01.673Z,87.12
2022-10-23T10:35:01.570Z,87.46
2022-10-23T10:40:01.791Z,87.71
2022-10-23T10:45:01.472Z,87.88
2022-10-23T10:50:02.045Z,87.86
2022-10-23T10:55:01.264Z,88.46
2022-10-23T11:00:01.274Z,88.29
2022-10-23T11:05:01.372Z,88.39
2022-10-23T11:10:01.953Z,88.47
2022-10-23T11:15:01.995Z,88.7
2022-10-23T11:20:02.175Z,89.38
2022-10-23T11:25:01.993Z,89.09
2022-10-23T11:30:01.586Z,88.91
2022-10-23T11:35:01.486Z,87.83
2022-10-23T11:40:01.373Z,87.29
2022-10-23T11:45:01.318Z,86.53
2022-10-23T11:50:01.631Z,86.76
2022-10-23T11:55:01.848Z,87.18
2022-10-23T12:00:02.339Z,87.31
2022-10-23T12:05:01.608Z,87.32
2022-10-23T12:10:01.595Z,87.57
2022-10-23T12:15:01.811Z,87.25
2022-10-23T12:20:02.654Z,87.27
2022-10-23T12:25:01.397Z,87.27
2022-10-23T12:30:02.074Z,86.96
2022-10-23T12:35:01.299Z,87.21
2022-10-23T12:40:01.433Z,86.94
2022-10-23T12:45:01.867Z,87.14
2022-10-23T12:50:01.515Z,87.6
2022-10-23T12:55:02.115Z,87.5
2022-10-23T13:00:01.534Z,87.66
2022-10-23T13:05:02.028Z,88.07
2022-10-23T13:10:01.697Z,88.18
2022-10-23T13:15:01.283Z,88.07
2022-10-23T13:20:01.908Z,87.72
2022-10-23T13:25:01.346Z,87.6
2022-10-23T13:30:02.575Z,87.24
2022-10-23T13:35:20.910Z,87.26
2022-10-23T13:40:01.551Z,87.2
2022-10-23T13:45:02.008Z,87.52
2022-10-23T13:50:01.758Z,87.52
2022-10-23T13:55:01.258Z,87.75
2022-10-23T14:00:01.702Z,87.73
2022-10-23T14:05:01.266Z,87.49
2022-10-23T14:10:01.885Z,87.83
2022-10-23T14:15:01.273Z,87.69
2022-10-23T14:20:04.038Z,87.88
2022-10-23T14:25:02.166Z,88.14
2022-10-23T14:30:01.496Z,88.27
2022-10-23T14:35:02.210Z,88.39
2022-10-23T14:40:02.118Z,88.39
2022-10-23T14:45:01.383Z,88.33
2022-10-23T14:50:01.885Z,88.2
2022-10-23T14:55:01.503Z,88.4
2022-10-23T15:00:01.338Z,88.53
2022-10-23T15:05:01.387Z,88.21
2022-10-23T15:10:02.192Z,88.42
2022-10-23T15:15:01.515Z,88.29
2022-10-23T15:20:02.115Z,88.46
2022-10-23T15:25:01.374Z,88.14
2022-10-23T15:30:02.165Z,87.81
2022-10-23T15:35:01.578Z,88.12
2022-10-23T15:40:02.700Z,88.19
2022-10-23T15:45:02.059Z,87.98
2022-10-23T15:50:01.647Z,88.11
2022-10-23T15:55:02.289Z,88.51
2022-10-23T16:00:02.078Z,88.5
2022-10-23T16:05:02.054Z,88.43
2022-10-23T16:10:01.627Z,88.65
2022-10-23T16:15:02.178Z,88.88
2022-10-23T16:20:02.212Z,88.94
2022-10-23T16:25:01.790Z,89.24
2022-10-23T16:30:01.585Z,89.37
2022-10-23T16:35:01.736Z,91.95
2022-10-23T16:40:01.870Z,93.57
2022-10-23T16:45:01.413Z,93.96
2022-10-23T16:50:01.487Z,95.75
2022-10-23T16:55:01.406Z,98.19
2022-10-23T17:00:01.469Z,100.08
2022-10-23T17:05:01.544Z,99.18
2022-10-23T17:10:02.199Z,99.37
2022-10-23T17:15:01.586Z,99.46
2022-10-23T17:20:01.579Z,100.87
2022-10-23T17:25:01.688Z,99.35
2022-10-23T17:30:02.166Z,99.3
2022-10-23T17:35:01.737Z,98.97
2022-10-23T17:40:01.657Z,94.93
2022-10-23T17:45:01.787Z,98.9
2022-10-23T17:50:01.568Z,99.14
2022-10-23T17:55:01.230Z,98.55
2022-10-23T18:00:01.584Z,99.4
2022-10-23T18:05:01.294Z,100.18
2022-10-23T18:10:01.304Z,100.05
2022-10-23T18:15:02.043Z,100.53
2022-10-23T18:20:02.156Z,99.88
2022-10-23T18:25:01.589Z,99.77
2022-10-23T18:30:01.575Z,99.38
2022-10-23T18:35:01.566Z,99.48
2022-10-23T18:40:01.894Z,99.31
2022-10-23T18:45:02.025Z,99.5
2022-10-23T18:50:02.229Z,99.56
2022-10-23T18:55:01.474Z,99.47
2022-10-23T19:00:02.019Z,99.7
2022-10-23T19:05:02.196Z,99.73
2022-10-23T19:10:01.725Z,99.89
2022-10-23T19:15:02.175Z,99.82
2022-10-23T19:20:01.552Z,99.79
2022-10-23T19:25:02.338Z,99.62
2022-10-23T19:30:02.131Z,99.51
2022-10-23T19:35:01.240Z,99.63
2022-10-23T19:40:01.554Z,99.24
2022-10-23T19:45:02.046Z,99.05
2022-10-23T19:50:01.968Z,98.82
2022-10-23T19:55:01.831Z,98.44
2022-10-23T20:00:01.442Z,99.8
2022-10-23T20:05:01.516Z,99.48
2022-10-23T20:10:01.567Z,98.82
2022-10-23T20:15:01.677Z,98.28
2022-10-23T20:20:02.440Z,98.37
2022-10-23T20:25:02.100Z,95.98
2022-10-23T20:30:01.777Z,97.98
2022-10-23T20:35:01.908Z,97.44
2022-10-23T20:40:01.586Z,98.15
2022-10-23T20:45:01.388Z,97.84
2022-10-23T20:50:02.071Z,97.53
2022-10-23T20:55:01.670Z,97.59
2022-10-23T21:00:02.058Z,97.57
2022-10-23T21:05:01.451Z,97.18
2022-10-23T21:10:01.460Z,97.85
2022-10-23T21:15:01.296Z,97.06
2022-10-23T21:20:01.578Z,96.06
2022-10-23T21:25:01.605Z,98.15
2022-10-23T21:30:01.968Z,96.73
2022-10-23T21:35:01.519Z,97.05
2022-10-23T21:40:01.881Z,96.54
2022-10-23T21:45:02.022Z,95.58
2022-10-23T21:50:01.797Z,95.6
2022-10-23T21:55:05.564Z,94.92
2022-10-23T22:00:02.242Z,94.9
2022-10-23T22:05:01.279Z,94.48
2022-10-23T22:10:01.794Z,94.22
2022-10-23T22:15:01.823Z,94.27
2022-10-23T22:20:02.212Z,95.4
2022-10-23T22:25:01.780Z,95.57
2022-10-23T22:30:02.115Z,95.7
2022-10-23T22:35:01.456Z,95.68
2022-10-23T22:40:01.546Z,96.76
2022-10-23T22:45:01.505Z,95.9
2022-10-23T22:50:02.020Z,95.56
2022-10-23T22:55:01.808Z,96.36
2022-10-23T23:00:02.197Z,97.22
2022-10-23T23:05:02.200Z,97.96
2022-10-23T23:10:02.328Z,97.96
2022-10-23T23:30:03.726Z,97.66
2022-10-23T23:35:02.299Z,97.72
2022-10-23T23:40:01.773Z,97.83
2022-10-23T23:45:13.579Z,97.81
2022-10-23T23:50:02.347Z,97.83
2022-10-23T23:55:03.032Z,97.21
